Blue Oak Ranch Reserve, California Weather observations

Data are for 10 minute period ending at time listed.
 Day   Time   Solar   Ave.   Ave.  Ave.  Vector  Max.   Baro.   Total    
  of    of     Rad.   Air    Rel.  Wind   Wind   Wind  Press.  Precip.   
Year   Day            Temp.  Hum.  Speed  Dir.   Gust                    
2014   (PST)  Kw/m2    F      %     mph   deg.    mph    mb.     in.     
-------------------------------------------------------------------------
 293    7:10   0.09   49.8    96    1.2    74     3.0   946.7    0.00 
 293    7:20   0.13   51.5    96    0.9    49     2.4   946.8    0.00 
 293    7:30   0.16   52.4    95    1.3    74     3.3   946.8    0.00 
 293    7:40   0.19   54.5    94    0.6    72     2.6   946.8    0.00 
 293    7:50   0.22   57.1    91    1.1    35     2.2   946.8    0.00 
 293    8:00   0.25   58.4    82    1.6   145     3.1   946.7    0.00 
 293    8:10   0.28   60.4    76    0.8   149     1.8   946.8    0.00 
 293    8:20   0.31   62.2    70    1.3   145     2.8   946.9    0.00 
 293    8:30   0.34   62.9    68    1.2   134     2.7   947.1    0.00 
 293    8:40   0.36   64.1    65    1.3   121     2.8   947.2    0.00 
 293    8:50   0.39   63.5    65    1.9    52     3.2   947.4    0.00 
 293    9:00   0.41   64.6    63    1.4   129     3.3   947.5    0.00 
 293    9:10   0.45   65.6    60    1.6   260     5.2   947.7    0.00 
 293    9:20   0.51   66.3    58    3.1   237     8.2   947.7    0.00 
 293    9:30   0.28   66.3    59    3.8   247     9.6   947.8    0.00 
 293    9:40   0.31   65.8    60    4.0   281     8.0   947.9    0.00 
 293    9:50   0.27   65.6    60    4.3   263     7.5   947.9    0.00 
 293   10:00   0.49   65.7    60    3.8   269     6.5   947.9    0.00 
 293   10:10   0.54   66.3    60    4.1   284     7.7   947.9    0.00 
 293   10:20   0.25   65.8    61    5.9   241     9.2   948.0    0.00 
 293   10:30   0.13   64.7    63    4.4   237     8.1   948.1    0.00 
 293   10:40   0.10   63.8    65    4.6   253     7.4   948.1    0.00 
 293   10:50   0.09   63.2    66    5.5   269    10.4   948.0    0.00 
 293   11:00   0.20   62.9    67    3.3   252     6.1   947.8    0.00 
 293   11:10   0.18   63.3    67    4.6   266     8.6   947.7    0.00 
 293   11:20   0.10   62.6    68    7.1   279    11.0   947.7    0.00 
 293   11:30   0.10   62.1    71    5.9   274    11.0   947.7    0.00 
 293   11:40   0.08   61.1    76    9.4   298    14.5   947.7    0.00 
 293   11:50   0.11   59.6    82    8.2   308    11.7   947.7    0.00 
 293   12:00   0.12   59.3    84    7.5   316    11.0   947.6    0.00 
 293   12:10   0.14   59.2    84    7.6   315    13.0   947.5    0.00 
 293   12:20   0.12   58.0    88    9.7   314    13.2   947.5    0.00 
 293   12:30   0.12   56.5    89    9.7   307    16.4   947.4    0.00 
 293   12:40   0.10   55.6    88    9.4   307    14.1   947.4    0.00 
 293   12:50   0.09   55.1    89   10.1   309    15.6   947.4    0.00 
 293   13:00   0.08   54.6    91   10.5   308    15.4   947.5    0.00 
 293   13:10   0.09   54.5    91    8.0   324    14.5   947.4    0.00 
 293   13:20   0.14   54.8    91    5.4   306    11.5   947.4    0.00 
 293   13:30   0.13   55.3    91    5.9   295    11.3   947.4    0.00 
 293   13:40   0.07   55.4    91    7.3   287    13.2   947.5    0.00 
 293   13:50   0.07   55.0    92    6.2   302    10.0   947.5    0.00 
 293   14:00   0.09   54.9    93    6.7   298    12.0   947.5    0.00 
 293   14:10   0.10   54.9    94    6.6   295    11.4   947.6    0.01 
 293   14:20   0.14   54.8    94    7.2   303    12.8   947.7    0.02 
 293   14:30   0.13   54.3    93    8.7   297    14.9   947.8    0.00 
 293   14:40   0.10   54.1    91    4.9   329     8.2   947.8    0.00 
 293   14:50   0.09   54.6    88    3.1     8     6.4   947.8    0.00 
 293   15:00   0.12   54.9    85    2.9     6     8.5   947.8    0.00 
 293   15:10   0.14   55.3    82    4.0    28     8.1   947.6    0.00 
 293   15:20   0.11   56.0    80    1.4    58     5.3   947.6    0.00 
 293   15:30   0.07   56.6    83    1.3    82     4.7   947.6    0.00 
 293   15:40   0.07   56.4    81    1.1   197     3.4   947.5    0.00 
 293   15:50   0.08   56.7    79    0.7   262     2.2   947.5    0.00 
 293   16:00   0.05   56.9    80    1.1   256     2.6   947.6    0.00 
 293   16:10   0.07   56.8    82    1.7   335     6.1   947.5    0.00 
 293   16:20   0.05   56.6    82    3.1   302     5.9   947.4    0.00 
 293   16:30   0.02   56.5    83    2.5   304     6.9   947.4    0.00 
 293   16:40   0.02   56.1    85    2.9   297     5.7   947.4    0.00 
 293   16:50   0.04   56.0    85    1.9   305     4.7   947.5    0.00 
 293   17:00   0.03   56.0    85    3.3   298     7.2   947.5    0.00 
 293   17:10   0.04   55.9    86    3.5   297     7.0   947.6    0.00 
 293   17:20   0.02   56.0    86    4.3   299     7.7   947.7    0.00 
 293   17:30   0.01   55.6    87    4.5   294     8.3   947.9    0.00 
 293   17:40   0.00   55.1    87    3.8   306     7.4   947.9    0.00 
 293   17:50   0.00   54.8    88    3.3   289     6.9   948.2    0.00 
 293   18:00   0.00   54.2    89    3.4   285     8.2   948.3    0.00 
 293   18:10   0.00   53.6    90    3.7   290     5.7   948.4    0.00 
 293   18:20   0.00   52.8    90    2.2   304     3.9   948.5    0.00 
 293   18:30   0.00   52.3    90    0.7   287     2.1   948.7    0.00 
 293   18:40   0.00   52.0    91    2.0   287     4.2   948.8    0.00 
 293   18:50   0.00   52.2    92    2.6   292     3.9   949.0    0.00 
 293   19:00   0.00   52.1    91    1.5   312     3.9   948.9    0.00 
 293   19:10   0.00   51.7    92    1.1   354     2.0   949.0    0.00 
 293   19:20   0.00   51.7    92    0.4   314     1.0   949.0    0.00 
 293   19:30   0.00   51.7    93    1.0   332     1.7   949.0    0.00 
 293   19:40   0.00   51.8    93    0.9   304     2.0   949.1    0.00 
 293   19:50   0.00   51.8    93    1.5   288     3.3   949.1    0.00 
 293   20:00   0.00   52.1    93    3.1   284     5.8   949.1    0.00 
 293   20:10   0.00   52.2    93    2.6   287     5.2   949.1    0.00 
 293   20:20   0.00   53.0    94    5.8   287    11.1   949.2    0.00 
 293   20:30   0.00   53.4    93    5.6   288     9.0   949.4    0.00 
 293   20:40   0.00   53.6    91    3.9   297     8.1   949.5    0.00 
 293   20:50   0.00   53.2    90    4.4   306     7.8   949.5    0.00 
 293   21:00   0.00   52.9    88    4.0   326     8.0   949.5    0.00 
 293   21:10   0.00   52.3    88    3.0   346     6.0   949.6    0.00 
 293   21:20   0.00   51.3    89    2.4     3     4.7   949.8    0.00 
 293   21:30   0.00   50.3    90    2.8    19     4.9   950.0    0.00 
 293   21:40   0.00   49.8    90    1.3     1     3.1   950.1    0.00 
 293   21:50   0.00   49.0    92    1.7   354     3.2   950.2    0.00 
 293   22:00   0.00   49.2    92    2.3   296     4.1   950.3    0.00 
 293   22:10   0.00   49.4    93    0.3   340     1.1   950.4    0.00 
 293   22:20   0.00   49.2    93    0.7    40     2.0   950.4    0.00 
 293   22:30   0.00   49.3    93    0.7   304     1.8   950.4    0.00 
 293   22:40   0.00   49.1    94    1.2   315     3.0   950.4    0.00 
 293   22:50   0.00   49.1    94    1.2   320     2.3   950.5    0.00 
 293   23:00   0.00   49.0    94    0.8   350     2.1   950.6    0.00 
 293   23:10   0.00   49.4    94    2.0   350     6.4   950.5    0.00 
 293   23:20   0.00   49.3    94    2.3   310     3.8   950.5    0.00 
 293   23:30   0.00   49.0    94    2.2   352     3.7   950.5    0.00 
 293   23:40   0.00   48.2    94    1.4   298     2.7   950.5    0.00 
 293   23:50   0.00   47.5    94    1.1   302     3.0   950.4    0.00 
 294    0:00   0.00   46.9    94    1.2    10     2.7   950.5    0.00 
 294    0:10   0.00   46.8    94    0.3   314     1.2   950.6    0.00 
 294    0:20   0.00   46.6    94    0.3   326     2.1   950.6    0.00 
 294    0:30   0.00   46.7    95    1.2   355     3.6   950.9    0.00 
 294    0:40   0.00   48.0    95    2.9   342     6.4   951.0    0.00 
 294    0:50   0.00   48.4    95    3.0     4     6.3   951.0    0.00 
 294    1:00   0.00   47.9    93    1.9   322     4.6   951.0    0.00 
 294    1:10   0.00   47.6    94    1.8    30     6.1   950.9    0.00 
 294    1:20   0.00   48.1    93    2.2    23     4.6   950.7    0.00 
 294    1:30   0.00   48.6    93    2.0     0     5.6   950.9    0.00 
 294    1:40   0.00   47.9    92    3.1    28     4.2   950.9    0.00 
 294    1:50   0.00   47.0    92    2.1    50     4.3   951.0    0.00 
 294    2:00   0.00   46.8    93    3.0    31     4.8   950.9    0.00 
 294    2:10   0.00   46.9    91    2.6    34     4.5   950.9    0.00 
 294    2:20   0.00   46.4    93    3.2    21     6.1   950.9    0.00 
 294    2:30   0.00   47.3    91    2.5    22     4.6   950.9    0.00 
 294    2:40   0.00   46.7    92    2.4    22     4.0   950.8    0.00 
 294    2:50   0.00   47.1    89    2.1    13     3.5   950.8    0.01 
 294    3:00   0.00   45.4    90    2.4    20     3.4   950.8    0.00 
 294    3:10   0.00   44.6    92    2.0    22     3.9   950.8    0.00 
 294    3:20   0.00   44.5    93    2.1    12     3.9   950.6    0.00 
 294    3:30   0.00   44.0    93    1.7    36     4.1   950.4    0.00 
 294    3:40   0.00   43.4    93    1.6     2     2.9   950.4    0.00 
 294    3:50   0.00   43.4    94    1.9   355     3.1   950.6    0.00 
 294    4:00   0.00   43.4    94    1.0    39     2.5   950.5    0.00 
 294    4:10   0.00   43.1    94    1.4    76     3.5   950.5    0.00 
 294    4:20   0.00   42.9    94    1.1   123     2.1   950.7    0.00 
 294    4:30   0.00   42.7    94    1.2    69     4.7   950.6    0.00 
 294    4:40   0.00   44.0    95    2.7    31     5.6   950.6    0.00 
 294    4:50   0.00   44.1    94    1.4    27     3.6   950.4    0.00 
 294    5:00   0.00   43.5    94    1.3    62     2.8   950.3    0.00 
 294    5:10   0.00   44.3    95    2.3   339     7.7   950.5    0.00 
 294    5:20   0.00   47.5    86    3.3    23     7.0   950.5    0.00 
 294    5:30   0.00   47.5    83    1.7    42     3.9   950.4    0.00 
 294    5:40   0.00   47.0    84    2.1    30     4.7   950.3    0.00 
 294    5:50   0.00   47.2    83    2.1    40     3.0   950.4    0.00 
 294    6:00   0.00   47.1    82    2.9    40     7.6   950.4    0.00 
 294    6:10   0.00   46.7    82    2.6    10     4.6   950.5    0.00 
 294    6:20   0.01   47.6    78    2.8   317     8.0   950.6    0.00 
 294    6:30   0.01   47.7    78    1.2   353     4.8   950.7    0.00 
 294    6:40   0.02   46.6    80    0.8    73     3.5   950.6    0.00 
 294    6:50   0.03   44.7    85    1.3   121     2.9   950.8    0.00 
 294    7:00   0.06   44.3    87    0.6   112     2.4   950.9    0.00 

Return to Blue Oak Ranch Reserve graphs page.


Western Regional Climate Center,wrcc@dri.edu